createdAt,value
2018-06-30T00:00:35.543Z,3.95
2018-06-30T00:01:41.516Z,4.15
2018-06-30T00:02:47.502Z,3.70
2018-06-30T00:03:53.459Z,4.87
2018-06-30T00:04:59.451Z,3.98
2018-06-30T00:06:05.446Z,3.80
2018-06-30T00:07:11.506Z,4.40
2018-06-30T00:08:17.512Z,3.72
2018-06-30T00:09:23.546Z,3.55
2018-06-30T00:10:30.902Z,4.05
2018-06-30T00:11:37.539Z,3.70
2018-06-30T00:12:43.596Z,4.17
2018-06-30T00:13:49.587Z,3.40
2018-06-30T00:14:55.608Z,3.25
2018-06-30T00:16:01.610Z,3.37
2018-06-30T00:17:07.656Z,3.35
2018-06-30T00:18:13.661Z,3.50
2018-06-30T00:19:19.696Z,2.77
2018-06-30T00:20:25.699Z,3.65
2018-06-30T00:21:31.671Z,2.80
2018-06-30T00:22:38.474Z,2.52
2018-06-30T00:23:44.440Z,2.90
2018-06-30T00:24:50.353Z,2.65
2018-06-30T00:25:56.365Z,2.55
2018-06-30T00:27:07.551Z,2.70
2018-06-30T00:28:13.505Z,2.45
2018-06-30T00:29:19.447Z,2.47
2018-06-30T00:30:27.022Z,2.20
2018-06-30T00:31:33.064Z,2.92
2018-06-30T00:32:39.050Z,2.22
2018-06-30T00:33:45.028Z,2.92
2018-06-30T00:34:50.987Z,2.98
2018-06-30T00:35:57.322Z,2.25
2018-06-30T00:37:03.278Z,2.77
2018-06-30T00:38:09.318Z,2.83
2018-06-30T00:39:15.725Z,2.47
2018-06-30T00:40:21.974Z,2.20
2018-06-30T00:41:27.908Z,2.80
2018-06-30T00:42:33.829Z,2.10
2018-06-30T00:43:39.786Z,2.37
2018-06-30T00:44:46.112Z,2.35
2018-06-30T00:45:52.735Z,2.80
2018-06-30T00:46:58.723Z,2.90
2018-06-30T00:48:04.799Z,3.50
2018-06-30T00:49:10.779Z,3.62
2018-06-30T00:50:16.754Z,3.67
2018-06-30T00:51:22.740Z,3.47
2018-06-30T00:52:28.711Z,3.10
2018-06-30T00:53:34.726Z,3.10
2018-06-30T00:54:40.806Z,2.85
2018-06-30T00:55:46.759Z,2.70
2018-06-30T00:56:52.722Z,3.35
2018-06-30T00:57:58.657Z,3.22
2018-06-30T00:59:04.636Z,3.35
2018-06-30T01:00:10.275Z,3.20
2018-06-30T01:01:16.207Z,3.52
2018-06-30T01:02:22.237Z,2.85
2018-06-30T01:03:28.177Z,2.80
2018-06-30T01:04:34.178Z,2.87
2018-06-30T01:05:40.372Z,3.08
2018-06-30T01:06:46.624Z,3.05
2018-06-30T01:07:52.599Z,3.05
2018-06-30T01:08:58.561Z,2.90
2018-06-30T01:10:04.547Z,2.60
2018-06-30T01:11:10.551Z,2.50
2018-06-30T01:12:16.530Z,2.55
2018-06-30T01:13:22.129Z,2.60
2018-06-30T01:14:27.906Z,2.90
2018-06-30T01:15:33.767Z,2.08
2018-06-30T01:16:39.947Z,2.40
2018-06-30T01:17:45.927Z,2.90
2018-06-30T01:18:51.517Z,2.98
2018-06-30T01:19:57.409Z,2.47
2018-06-30T01:21:03.479Z,2.33
2018-06-30T01:22:09.728Z,3.00
2018-06-30T01:23:16.079Z,2.67
2018-06-30T01:24:22.107Z,2.85
2018-06-30T01:25:28.121Z,2.70
2018-06-30T01:26:34.043Z,2.85
2018-06-30T01:27:40.043Z,3.08
2018-06-30T01:28:45.993Z,2.67
2018-06-30T01:29:51.930Z,3.05
2018-06-30T01:30:58.173Z,3.02
2018-06-30T01:32:04.182Z,3.40
2018-06-30T01:33:10.182Z,3.20
2018-06-30T01:34:16.574Z,3.27
2018-06-30T01:35:22.311Z,2.50
2018-06-30T01:36:28.209Z,3.70
2018-06-30T01:37:34.174Z,2.55
2018-06-30T01:38:40.244Z,2.95
2018-06-30T01:39:45.941Z,2.80
2018-06-30T01:40:51.817Z,2.50
2018-06-30T01:41:58.141Z,3.15
2018-06-30T01:43:04.139Z,3.25
2018-06-30T01:44:10.443Z,2.40
2018-06-30T01:45:16.432Z,2.50
2018-06-30T01:46:22.059Z,2.60
2018-06-30T01:47:27.932Z,2.65
2018-06-30T01:48:33.803Z,2.80
2018-06-30T01:49:39.661Z,2.60
2018-06-30T01:50:45.623Z,2.83
2018-06-30T01:51:51.583Z,3.00
2018-06-30T01:52:57.503Z,2.90
2018-06-30T01:54:03.500Z,2.80
2018-06-30T01:55:09.139Z,1.90
2018-06-30T01:56:15.026Z,2.45
2018-06-30T01:57:21.183Z,2.22
2018-06-30T01:58:27.116Z,2.95
2018-06-30T01:59:33.055Z,2.15
2018-06-30T02:00:39.106Z,2.47
2018-06-30T02:01:45.051Z,2.50
2018-06-30T02:02:50.981Z,2.22
2018-06-30T02:03:57.388Z,1.98
2018-06-30T02:05:03.469Z,2.87
2018-06-30T02:06:09.125Z,2.10
2018-06-30T02:07:14.987Z,2.10
2018-06-30T02:08:20.941Z,2.10
2018-06-30T02:09:26.909Z,2.45
2018-06-30T02:10:32.882Z,2.42
2018-06-30T02:11:39.078Z,2.20
2018-06-30T02:12:45.027Z,2.52
2018-06-30T02:13:51.006Z,2.40
2018-06-30T02:14:56.765Z,2.10
2018-06-30T02:16:02.771Z,2.87
2018-06-30T02:17:08.747Z,2.60
2018-06-30T02:18:14.703Z,2.33
2018-06-30T02:19:20.677Z,2.45
2018-06-30T02:20:26.906Z,2.33
2018-06-30T02:21:32.939Z,2.65
2018-06-30T02:22:39.050Z,2.45
2018-06-30T02:23:44.990Z,2.75
2018-06-30T02:24:50.937Z,3.33
2018-06-30T02:25:56.945Z,3.00
2018-06-30T02:27:02.955Z,2.15
2018-06-30T02:28:08.995Z,2.50
2018-06-30T02:29:14.790Z,2.40
2018-06-30T02:30:20.743Z,2.65
2018-06-30T02:31:27.027Z,2.10
2018-06-30T02:32:32.971Z,2.67
2018-06-30T02:33:38.974Z,2.80
2018-06-30T02:34:44.929Z,2.58
2018-06-30T02:35:50.876Z,2.60
2018-06-30T02:36:56.922Z,2.08
2018-06-30T02:38:02.924Z,2.05
2018-06-30T02:39:10.120Z,2.42
2018-06-30T02:40:16.051Z,2.08
2018-06-30T02:41:22.114Z,1.42
2018-06-30T02:42:28.094Z,2.30
2018-06-30T02:43:34.060Z,2.72
2018-06-30T02:44:40.028Z,1.90
2018-06-30T02:45:46.012Z,1.98
2018-06-30T02:46:51.979Z,2.08
2018-06-30T02:47:57.934Z,2.10
2018-06-30T02:49:03.726Z,2.25
2018-06-30T02:50:09.818Z,2.02
2018-06-30T02:51:15.786Z,2.25
2018-06-30T02:52:21.786Z,2.22
2018-06-30T02:53:27.890Z,1.75
2018-06-30T02:54:33.921Z,2.27
2018-06-30T02:55:39.906Z,2.30
2018-06-30T02:56:45.871Z,2.20
2018-06-30T02:57:51.843Z,1.90
2018-06-30T02:58:57.800Z,2.10
2018-06-30T03:00:03.449Z,1.98
2018-06-30T03:01:09.586Z,2.50
2018-06-30T03:02:15.635Z,2.00
2018-06-30T03:03:21.651Z,2.20
2018-06-30T03:04:27.635Z,2.02
2018-06-30T03:05:33.583Z,2.22
2018-06-30T03:06:39.565Z,1.90
2018-06-30T03:07:45.494Z,2.30
2018-06-30T03:08:51.431Z,2.02
2018-06-30T03:09:57.376Z,2.00
2018-06-30T03:11:03.360Z,2.12
2018-06-30T03:12:09.592Z,2.45
2018-06-30T03:13:15.549Z,2.10
2018-06-30T03:14:21.894Z,2.08
2018-06-30T03:15:27.858Z,1.82
2018-06-30T03:16:34.035Z,1.72
2018-06-30T03:17:40.120Z,2.33
2018-06-30T03:18:47.804Z,2.62
2018-06-30T03:19:53.751Z,1.85
2018-06-30T03:20:59.791Z,2.10
2018-06-30T03:22:05.843Z,1.50
2018-06-30T03:23:11.827Z,2.37
2018-06-30T03:24:17.821Z,1.95
2018-06-30T03:25:23.843Z,1.80
2018-06-30T03:26:29.825Z,1.90
2018-06-30T03:27:35.778Z,2.27
2018-06-30T03:28:41.791Z,1.95
2018-06-30T03:29:47.791Z,2.05
2018-06-30T03:30:53.775Z,2.00
2018-06-30T03:31:59.762Z,2.30
2018-06-30T03:33:06.246Z,2.02
2018-06-30T03:34:12.207Z,2.30
2018-06-30T03:35:18.271Z,1.30
2018-06-30T03:36:24.220Z,1.90
2018-06-30T03:37:30.204Z,2.22
2018-06-30T03:38:36.133Z,2.15
2018-06-30T03:39:42.311Z,2.30
2018-06-30T03:40:48.262Z,1.95
2018-06-30T03:41:54.262Z,2.00
2018-06-30T03:43:00.144Z,2.70
2018-06-30T03:44:06.591Z,2.67
2018-06-30T03:45:12.205Z,1.82
2018-06-30T03:46:18.108Z,2.40
2018-06-30T03:47:24.243Z,2.00
2018-06-30T03:48:30.191Z,2.12
2018-06-30T03:49:36.111Z,3.20
2018-06-30T03:50:42.082Z,2.00
2018-06-30T03:51:48.390Z,1.60
2018-06-30T03:52:54.402Z,2.20
2018-06-30T03:54:00.923Z,2.05
2018-06-30T03:55:07.233Z,1.90
2018-06-30T03:56:13.197Z,1.90
2018-06-30T03:57:19.137Z,2.62
2018-06-30T03:58:25.187Z,2.58
2018-06-30T03:59:31.161Z,2.20
2018-06-30T04:00:37.111Z,2.02
2018-06-30T04:01:43.465Z,2.08
2018-06-30T04:02:49.072Z,1.65
2018-06-30T04:03:54.964Z,1.87
2018-06-30T04:05:00.895Z,1.82
2018-06-30T04:06:07.059Z,2.30
2018-06-30T04:07:12.997Z,2.10
2018-06-30T04:08:19.145Z,1.65
2018-06-30T04:09:25.062Z,1.60
2018-06-30T04:10:31.017Z,1.60
2018-06-30T04:11:37.151Z,1.55
2018-06-30T04:12:43.125Z,1.20
2018-06-30T04:13:49.062Z,1.47
2018-06-30T04:14:55.109Z,1.35
2018-06-30T04:16:01.127Z,1.35
2018-06-30T04:17:07.458Z,1.70
2018-06-30T04:18:13.622Z,1.15
2018-06-30T04:19:19.561Z,1.30
2018-06-30T04:20:26.025Z,1.30
2018-06-30T04:21:32.270Z,1.40
2018-06-30T04:22:38.752Z,1.60
2018-06-30T04:23:45.035Z,1.45
2018-06-30T04:24:51.020Z,1.12
2018-06-30T04:25:56.938Z,1.42
2018-06-30T04:27:02.903Z,1.42
2018-06-30T04:28:08.837Z,1.17
2018-06-30T04:29:15.011Z,1.00
2018-06-30T04:30:21.036Z,1.10
2018-06-30T04:31:27.020Z,1.62
2018-06-30T04:32:32.960Z,1.15
2018-06-30T04:33:39.103Z,1.07
2018-06-30T04:34:45.428Z,1.07
2018-06-30T04:35:51.423Z,1.20
2018-06-30T04:36:57.349Z,1.12
2018-06-30T04:38:03.295Z,1.10
2018-06-30T04:39:10.672Z,1.10
2018-06-30T04:40:16.644Z,0.85
2018-06-30T04:41:22.611Z,1.05
2018-06-30T04:42:28.666Z,0.90
2018-06-30T04:43:34.604Z,0.88
2018-06-30T04:44:40.810Z,1.20
2018-06-30T04:45:46.804Z,0.90
2018-06-30T04:46:52.758Z,1.37
2018-06-30T04:47:58.857Z,1.00
2018-06-30T04:49:04.947Z,0.90
2018-06-30T04:50:11.255Z,0.90
2018-06-30T04:51:17.262Z,0.95
2018-06-30T04:52:23.272Z,1.12
2018-06-30T04:53:29.205Z,1.20
2018-06-30T04:54:35.525Z,0.90
2018-06-30T04:55:41.617Z,1.20
2018-06-30T04:56:47.844Z,0.80
2018-06-30T04:57:53.862Z,0.90
2018-06-30T04:58:59.458Z,0.90
2018-06-30T05:00:05.918Z,0.90
2018-06-30T05:01:11.895Z,0.82
2018-06-30T05:02:17.880Z,1.22
2018-06-30T05:03:23.836Z,1.00
2018-06-30T05:04:29.787Z,0.90
2018-06-30T05:05:35.719Z,0.90
2018-06-30T05:06:41.665Z,0.90
2018-06-30T05:07:47.629Z,0.80
2018-06-30T05:08:53.727Z,0.85
2018-06-30T05:09:59.604Z,1.15
2018-06-30T05:11:05.664Z,0.85
2018-06-30T05:12:11.670Z,1.10
2018-06-30T05:13:17.309Z,1.00
2018-06-30T05:14:23.387Z,0.90
2018-06-30T05:15:29.463Z,0.90
2018-06-30T05:16:35.496Z,0.90
2018-06-30T05:17:41.827Z,1.10
2018-06-30T05:18:48.253Z,0.95
2018-06-30T05:19:54.243Z,1.00
2018-06-30T05:21:00.237Z,0.80
2018-06-30T05:22:06.374Z,1.15
2018-06-30T05:23:12.327Z,1.10
2018-06-30T05:24:18.320Z,0.80
2018-06-30T05:25:24.276Z,0.80
2018-06-30T05:26:30.346Z,1.20
2018-06-30T05:27:36.355Z,0.80
2018-06-30T05:28:42.341Z,0.93
2018-06-30T05:29:48.326Z,1.00
2018-06-30T05:30:54.291Z,0.60
2018-06-30T05:32:00.585Z,0.90
2018-06-30T05:33:06.963Z,0.78
2018-06-30T05:34:13.481Z,0.85
2018-06-30T05:35:19.450Z,1.00
2018-06-30T05:36:25.410Z,0.80
2018-06-30T05:37:31.344Z,0.90
2018-06-30T05:38:37.301Z,0.90
2018-06-30T05:39:43.541Z,0.90
2018-06-30T05:40:49.710Z,0.95
2018-06-30T05:41:55.642Z,0.62
2018-06-30T05:43:01.693Z,0.80
2018-06-30T05:44:11.461Z,0.80
2018-06-30T05:45:18.285Z,0.70
2018-06-30T05:46:25.909Z,1.45
2018-06-30T05:47:33.020Z,0.85
2018-06-30T05:48:39.046Z,0.82
2018-06-30T05:49:45.600Z,0.78
2018-06-30T05:50:51.612Z,0.70
2018-06-30T05:51:57.932Z,0.70
2018-06-30T05:53:03.553Z,0.80
2018-06-30T05:54:09.384Z,0.82
2018-06-30T05:55:15.451Z,0.80
2018-06-30T05:56:21.404Z,0.90
2018-06-30T05:57:27.028Z,0.80
2018-06-30T05:58:32.927Z,0.80
2018-06-30T05:59:38.869Z,0.80
2018-06-30T06:00:45.179Z,0.93
2018-06-30T06:01:51.115Z,0.80
2018-06-30T06:02:57.555Z,0.80
2018-06-30T06:04:03.562Z,0.80
2018-06-30T06:05:09.497Z,0.70
2018-06-30T06:06:15.456Z,0.70
2018-06-30T06:07:21.486Z,0.90
2018-06-30T06:08:27.468Z,0.70
2018-06-30T06:09:33.389Z,0.60
2018-06-30T06:10:39.370Z,0.72
2018-06-30T06:11:45.318Z,0.60
2018-06-30T06:12:51.311Z,0.70
2018-06-30T06:13:57.266Z,0.70
2018-06-30T06:15:03.231Z,0.62
2018-06-30T06:16:09.274Z,0.68
2018-06-30T06:17:15.219Z,0.50
2018-06-30T06:18:21.242Z,0.70
2018-06-30T06:19:26.844Z,0.60
2018-06-30T06:20:33.048Z,0.70
2018-06-30T06:21:38.985Z,0.68
2018-06-30T06:22:44.943Z,0.70
2018-06-30T06:23:50.919Z,0.75
2018-06-30T06:24:56.901Z,0.80
2018-06-30T06:26:02.878Z,0.70
2018-06-30T06:27:09.111Z,0.68
2018-06-30T06:28:15.047Z,0.50
2018-06-30T06:29:21.022Z,0.53
2018-06-30T06:30:27.007Z,0.55
2018-06-30T06:31:33.317Z,0.53
2018-06-30T06:32:39.631Z,0.60
2018-06-30T06:33:45.782Z,0.53
2018-06-30T06:34:51.690Z,0.55
2018-06-30T06:35:57.654Z,0.50
2018-06-30T06:37:03.654Z,0.40
2018-06-30T06:38:09.943Z,0.50
2018-06-30T06:39:15.899Z,0.60
2018-06-30T06:40:21.899Z,0.50
2018-06-30T06:41:27.672Z,0.50
2018-06-30T06:42:33.654Z,0.50
2018-06-30T06:43:39.582Z,0.33
2018-06-30T06:44:45.532Z,0.50
2018-06-30T06:45:51.686Z,0.57
2018-06-30T06:46:58.024Z,0.60
2018-06-30T06:48:04.144Z,0.50
2018-06-30T06:49:10.072Z,0.50
2018-06-30T06:50:16.016Z,0.50
2018-06-30T06:51:21.975Z,0.50
2018-06-30T06:52:27.985Z,0.50
2018-06-30T06:53:33.951Z,0.50
2018-06-30T06:54:40.008Z,0.40
2018-06-30T06:55:46.352Z,0.40
2018-06-30T06:56:52.323Z,0.50
2018-06-30T06:57:58.439Z,0.72
2018-06-30T06:59:04.511Z,0.45
2018-06-30T07:00:10.469Z,0.50
2018-06-30T07:01:16.651Z,0.50
2018-06-30T07:02:22.591Z,0.50
2018-06-30T07:03:28.535Z,0.50
2018-06-30T07:04:34.530Z,0.50
2018-06-30T07:05:40.707Z,0.50
2018-06-30T07:06:46.690Z,0.50
2018-06-30T07:07:52.628Z,0.50
2018-06-30T07:08:58.591Z,0.50
2018-06-30T07:10:04.690Z,0.50
2018-06-30T07:11:10.681Z,0.50
2018-06-30T07:12:16.622Z,0.40
2018-06-30T07:13:22.618Z,0.80
2018-06-30T07:14:28.270Z,0.57
2018-06-30T07:15:34.155Z,0.42
2018-06-30T07:16:40.116Z,0.50
2018-06-30T07:17:46.580Z,0.50
2018-06-30T07:18:53.248Z,0.50
2018-06-30T07:19:59.623Z,0.75
2018-06-30T07:21:05.296Z,0.50
2018-06-30T07:22:11.632Z,0.33
2018-06-30T07:23:17.624Z,0.40
2018-06-30T07:24:23.595Z,0.60
2018-06-30T07:25:29.644Z,0.40
2018-06-30T07:26:35.791Z,0.50
2018-06-30T07:27:42.212Z,0.50
2018-06-30T07:28:48.501Z,0.50
2018-06-30T07:29:54.410Z,0.30
2018-06-30T07:31:00.436Z,0.47
2018-06-30T07:32:06.413Z,0.40
2018-06-30T07:33:12.366Z,0.40
2018-06-30T07:34:18.275Z,0.50
2018-06-30T07:35:24.261Z,0.55
2018-06-30T07:36:30.214Z,0.40
2018-06-30T07:37:36.263Z,0.40
2018-06-30T07:38:42.387Z,0.40
2018-06-30T07:39:48.282Z,0.47
2018-06-30T07:40:54.236Z,0.47
2018-06-30T07:42:00.201Z,0.40
2018-06-30T07:43:06.648Z,0.40
2018-06-30T07:44:12.590Z,0.50
2018-06-30T07:45:18.209Z,0.40
2018-06-30T07:46:24.290Z,0.40
2018-06-30T07:47:30.864Z,0.30
2018-06-30T07:48:37.172Z,0.30
2018-06-30T07:49:43.126Z,0.40
2018-06-30T07:50:49.135Z,0.40
2018-06-30T07:51:55.298Z,0.40
2018-06-30T07:53:01.688Z,0.50
2018-06-30T07:54:07.673Z,0.40
2018-06-30T07:55:13.601Z,0.40
2018-06-30T07:56:19.565Z,0.45
2018-06-30T07:57:25.518Z,0.40
2018-06-30T07:58:31.471Z,0.40
2018-06-30T07:59:37.707Z,0.40
2018-06-30T08:00:43.635Z,0.30
2018-06-30T08:01:49.599Z,0.37
2018-06-30T08:02:55.618Z,0.40
2018-06-30T08:04:01.591Z,0.40
2018-06-30T08:05:07.565Z,0.40
2018-06-30T08:06:13.502Z,0.40
2018-06-30T08:07:19.442Z,0.40
2018-06-30T08:08:25.706Z,0.40
2018-06-30T08:09:31.685Z,0.40
2018-06-30T08:10:37.587Z,0.40
2018-06-30T08:11:43.531Z,0.50
2018-06-30T08:12:49.534Z,0.40
2018-06-30T08:13:55.575Z,0.40
2018-06-30T08:15:01.610Z,0.40
2018-06-30T08:16:07.921Z,0.40
2018-06-30T08:17:13.833Z,0.40
2018-06-30T08:18:19.762Z,0.40
2018-06-30T08:19:25.787Z,0.40
2018-06-30T08:20:31.767Z,0.50
2018-06-30T08:21:37.362Z,0.40
2018-06-30T08:22:43.274Z,0.50
2018-06-30T08:23:49.594Z,0.40
2018-06-30T08:24:55.922Z,0.37
2018-06-30T08:26:01.906Z,0.40
2018-06-30T08:27:07.862Z,0.50
2018-06-30T08:28:13.824Z,0.30
2018-06-30T08:29:19.868Z,0.40
2018-06-30T08:30:25.808Z,0.35
2018-06-30T08:31:31.756Z,0.40
2018-06-30T08:32:37.747Z,0.40
2018-06-30T08:33:43.723Z,0.40
2018-06-30T08:34:49.662Z,0.40
2018-06-30T08:35:55.578Z,0.85
2018-06-30T08:37:01.531Z,0.50
2018-06-30T08:38:07.535Z,0.50
2018-06-30T08:39:14.105Z,0.50
2018-06-30T08:40:20.000Z,0.40
2018-06-30T08:41:26.299Z,0.40
2018-06-30T08:42:32.252Z,0.40
2018-06-30T08:43:38.335Z,0.40
2018-06-30T08:44:44.274Z,0.45
2018-06-30T08:45:50.227Z,0.50
2018-06-30T08:46:56.611Z,0.40
2018-06-30T08:48:02.591Z,0.30
2018-06-30T08:49:09.792Z,0.50
2018-06-30T08:50:15.796Z,0.40
2018-06-30T08:51:21.722Z,0.37
2018-06-30T08:52:27.655Z,0.40
2018-06-30T08:53:33.614Z,0.45
2018-06-30T08:54:39.536Z,0.40
2018-06-30T08:55:45.622Z,0.40
2018-06-30T08:56:51.707Z,0.40
2018-06-30T08:57:57.658Z,0.40
2018-06-30T08:59:03.610Z,0.40
2018-06-30T09:00:09.587Z,0.40
2018-06-30T09:01:15.492Z,0.40
2018-06-30T09:02:21.709Z,0.40
2018-06-30T09:03:27.644Z,0.40
2018-06-30T09:04:33.619Z,0.50
2018-06-30T09:05:39.212Z,0.40
2018-06-30T09:06:45.107Z,0.50
2018-06-30T09:07:51.047Z,0.50
2018-06-30T09:08:56.988Z,0.50
2018-06-30T09:10:03.486Z,0.75
2018-06-30T09:11:09.509Z,0.50
2018-06-30T09:12:15.504Z,0.40
2018-06-30T09:13:21.605Z,0.60
2018-06-30T09:14:27.531Z,0.40
2018-06-30T09:15:33.179Z,0.55
2018-06-30T09:16:39.457Z,0.50
2018-06-30T09:17:45.680Z,0.50
2018-06-30T09:18:51.642Z,0.45
2018-06-30T09:19:57.989Z,0.50
2018-06-30T09:21:04.002Z,0.50
2018-06-30T09:22:09.867Z,0.50
2018-06-30T09:23:15.820Z,0.40
2018-06-30T09:24:21.497Z,0.40
2018-06-30T09:25:27.711Z,0.50
2018-06-30T09:26:33.338Z,0.40
2018-06-30T09:27:39.180Z,0.50
2018-06-30T09:28:45.112Z,0.40
2018-06-30T09:29:51.083Z,0.40
2018-06-30T09:30:57.003Z,0.40
2018-06-30T09:32:03.230Z,0.50
2018-06-30T09:33:09.269Z,0.43
2018-06-30T09:34:14.961Z,0.60
2018-06-30T09:35:20.653Z,0.40
2018-06-30T09:36:25.996Z,0.40
2018-06-30T09:37:31.630Z,0.50
2018-06-30T09:38:37.664Z,0.40
2018-06-30T09:39:43.538Z,0.50
2018-06-30T09:40:49.595Z,0.50
2018-06-30T09:41:55.512Z,0.50
2018-06-30T09:43:01.235Z,0.40
2018-06-30T09:44:07.494Z,0.40
2018-06-30T09:45:13.541Z,0.40
2018-06-30T09:46:19.211Z,0.40
2018-06-30T09:47:25.127Z,0.42
2018-06-30T09:48:30.939Z,0.50
2018-06-30T09:49:36.900Z,0.50
2018-06-30T09:50:42.878Z,0.42
2018-06-30T09:51:48.845Z,0.40
2018-06-30T09:52:55.168Z,0.40
2018-06-30T09:54:01.239Z,0.40
2018-06-30T09:55:10.217Z,0.40
2018-06-30T09:56:16.171Z,0.40
2018-06-30T09:57:22.127Z,0.45
2018-06-30T09:58:28.435Z,0.40
2018-06-30T09:59:34.419Z,0.50
2018-06-30T10:00:45.560Z,0.40
2018-06-30T10:01:51.196Z,0.40
2018-06-30T10:02:57.041Z,0.45
2018-06-30T10:04:02.959Z,0.40
2018-06-30T10:05:08.913Z,0.40
2018-06-30T10:06:14.863Z,0.40
2018-06-30T10:07:20.990Z,0.40
2018-06-30T10:08:26.913Z,0.40
2018-06-30T10:09:32.921Z,0.85
2018-06-30T10:10:38.902Z,0.40
2018-06-30T10:11:45.489Z,0.45
2018-06-30T10:12:51.484Z,0.40
2018-06-30T10:13:57.150Z,0.40
2018-06-30T10:15:03.021Z,0.40
2018-06-30T10:16:09.040Z,0.40
2018-06-30T10:17:15.354Z,0.40
2018-06-30T10:18:21.267Z,0.42
2018-06-30T10:19:27.265Z,0.40
2018-06-30T10:20:33.379Z,0.40
2018-06-30T10:21:39.503Z,0.50
2018-06-30T10:22:45.720Z,0.40
2018-06-30T10:23:51.644Z,0.30
2018-06-30T10:24:57.600Z,0.47
2018-06-30T10:26:03.834Z,0.40
2018-06-30T10:27:09.828Z,0.40
2018-06-30T10:28:15.804Z,0.40
2018-06-30T10:29:21.751Z,0.40
2018-06-30T10:30:28.234Z,0.40
2018-06-30T10:31:34.201Z,0.60
2018-06-30T10:32:40.194Z,0.50
2018-06-30T10:33:46.103Z,0.40
2018-06-30T10:34:52.090Z,0.40
2018-06-30T10:35:57.996Z,0.40
2018-06-30T10:37:03.662Z,0.40
2018-06-30T10:38:10.258Z,0.42
2018-06-30T10:39:16.207Z,0.40
2018-06-30T10:40:22.136Z,0.40
2018-06-30T10:41:28.059Z,0.40
2018-06-30T10:42:34.039Z,0.40
2018-06-30T10:43:40.082Z,0.50
2018-06-30T10:44:46.075Z,0.40
2018-06-30T10:45:52.068Z,0.40
2018-06-30T10:46:58.011Z,0.40
2018-06-30T10:48:03.971Z,0.40
2018-06-30T10:49:10.302Z,0.47
2018-06-30T10:50:16.256Z,0.40
2018-06-30T10:51:22.190Z,0.40
2018-06-30T10:52:28.111Z,0.53
2018-06-30T10:53:34.067Z,0.50
2018-06-30T10:54:40.007Z,0.42
2018-06-30T10:55:46.043Z,0.40
2018-06-30T10:56:52.062Z,0.42
2018-06-30T10:57:58.014Z,0.40
2018-06-30T10:59:03.650Z,0.40
2018-06-30T11:00:09.615Z,0.40
2018-06-30T11:01:15.571Z,0.40
2018-06-30T11:02:21.564Z,0.40
2018-06-30T11:03:27.495Z,0.45
2018-06-30T11:04:33.423Z,0.50
2018-06-30T11:05:39.406Z,0.50
2018-06-30T11:06:45.394Z,0.40
2018-06-30T11:07:51.329Z,0.40
2018-06-30T11:08:57.386Z,0.40
2018-06-30T11:10:03.153Z,0.40
2018-06-30T11:11:09.046Z,0.42
2018-06-30T11:12:15.358Z,0.50
2018-06-30T11:13:21.284Z,0.40
2018-06-30T11:14:27.275Z,0.40
2018-06-30T11:15:33.557Z,0.40
2018-06-30T11:16:39.595Z,0.40
2018-06-30T11:17:45.575Z,0.40
2018-06-30T11:18:51.845Z,0.50
2018-06-30T11:19:58.172Z,0.50
2018-06-30T11:21:04.152Z,0.40
2018-06-30T11:22:10.211Z,0.40
2018-06-30T11:23:16.189Z,0.50
2018-06-30T11:24:22.408Z,0.40
2018-06-30T11:25:28.386Z,0.50
2018-06-30T11:26:34.705Z,0.40
2018-06-30T11:27:40.727Z,0.60
2018-06-30T11:28:46.747Z,0.45
2018-06-30T11:29:52.717Z,0.50
2018-06-30T11:30:58.618Z,0.40
2018-06-30T11:32:04.610Z,0.40
2018-06-30T11:33:10.558Z,0.40
2018-06-30T11:34:16.492Z,0.40
2018-06-30T11:35:22.138Z,0.40
2018-06-30T11:36:28.014Z,0.50
2018-06-30T11:37:34.025Z,0.40
2018-06-30T11:38:40.382Z,0.40
2018-06-30T11:39:46.069Z,0.40
2018-06-30T11:40:52.059Z,0.55
2018-06-30T11:41:58.120Z,0.50
2018-06-30T11:43:04.126Z,0.40
2018-06-30T11:44:10.125Z,0.40
2018-06-30T11:45:16.074Z,0.82
2018-06-30T11:46:22.288Z,0.40
2018-06-30T11:47:28.271Z,0.50
2018-06-30T11:48:34.238Z,0.50
2018-06-30T11:49:40.231Z,0.40
2018-06-30T11:50:46.159Z,0.40
2018-06-30T11:51:52.135Z,0.50
2018-06-30T11:52:58.083Z,0.50
2018-06-30T11:54:04.197Z,0.42
2018-06-30T11:55:10.189Z,0.40
2018-06-30T11:56:16.180Z,0.40
2018-06-30T11:57:22.143Z,0.50
2018-06-30T11:58:28.130Z,0.50
2018-06-30T11:59:34.051Z,0.50
2018-06-30T12:00:40.128Z,0.50
2018-06-30T12:01:46.079Z,0.40
2018-06-30T12:02:52.222Z,0.40
2018-06-30T12:03:58.173Z,0.40
2018-06-30T12:05:04.539Z,0.40
2018-06-30T12:06:10.558Z,0.50
2018-06-30T12:07:16.241Z,0.50
2018-06-30T12:08:22.103Z,0.40
2018-06-30T12:09:28.096Z,0.40
2018-06-30T12:10:34.031Z,0.50
2018-06-30T12:11:40.161Z,0.50
2018-06-30T12:12:45.998Z,0.40
2018-06-30T12:13:51.999Z,0.50
2018-06-30T12:14:57.918Z,0.40
2018-06-30T12:16:03.551Z,0.50
2018-06-30T12:17:09.428Z,0.40
2018-06-30T12:18:15.371Z,0.50
2018-06-30T12:19:21.324Z,0.40
2018-06-30T12:20:27.349Z,0.40
2018-06-30T12:21:33.005Z,0.40
2018-06-30T12:22:38.912Z,0.42
2018-06-30T12:23:44.987Z,0.50
2018-06-30T12:24:50.903Z,0.50
2018-06-30T12:25:56.829Z,0.50
2018-06-30T12:27:03.055Z,0.50
2018-06-30T12:28:09.216Z,0.40
2018-06-30T12:29:15.149Z,0.45
2018-06-30T12:30:21.252Z,0.50
2018-06-30T12:31:27.355Z,0.40
2018-06-30T12:32:33.687Z,0.40
2018-06-30T12:33:39.654Z,0.40
2018-06-30T12:34:45.771Z,0.40
2018-06-30T12:35:51.752Z,0.70
2018-06-30T12:36:57.742Z,0.40
2018-06-30T12:38:03.715Z,0.47
2018-06-30T12:39:10.648Z,0.40
2018-06-30T12:40:16.837Z,0.40
2018-06-30T12:41:22.431Z,0.50
2018-06-30T12:42:28.013Z,0.40
2018-06-30T12:43:33.852Z,0.40
2018-06-30T12:44:39.796Z,0.50
2018-06-30T12:45:45.780Z,0.50
2018-06-30T12:46:51.732Z,0.40
2018-06-30T12:47:57.670Z,0.40
2018-06-30T12:49:03.819Z,0.45
2018-06-30T12:50:09.663Z,0.40
2018-06-30T12:51:15.640Z,0.40
2018-06-30T12:52:21.612Z,0.40
2018-06-30T12:53:27.551Z,0.40
2018-06-30T12:54:33.741Z,0.35
2018-06-30T12:55:40.082Z,0.30
2018-06-30T12:56:46.079Z,0.40
2018-06-30T12:57:52.175Z,0.50
2018-06-30T12:58:58.135Z,0.40
2018-06-30T13:00:04.685Z,0.40
2018-06-30T13:01:10.098Z,0.40
2018-06-30T13:02:16.004Z,0.40
2018-06-30T13:03:21.966Z,0.55
2018-06-30T13:04:27.957Z,0.50
2018-06-30T13:05:33.933Z,0.55
2018-06-30T13:06:39.889Z,0.62
2018-06-30T13:07:45.955Z,0.50
2018-06-30T13:08:51.897Z,0.70
2018-06-30T13:09:58.138Z,0.40
2018-06-30T13:11:04.111Z,0.50
2018-06-30T13:12:10.111Z,0.40
2018-06-30T13:13:16.057Z,0.50
2018-06-30T13:14:22.186Z,0.50
2018-06-30T13:15:28.203Z,1.12
2018-06-30T13:16:34.487Z,0.47
2018-06-30T13:17:40.445Z,0.50
2018-06-30T13:18:46.632Z,0.40
2018-06-30T13:19:52.355Z,0.40
2018-06-30T13:20:58.331Z,0.47
2018-06-30T13:22:04.532Z,0.50
2018-06-30T13:23:10.155Z,0.50
2018-06-30T13:24:16.215Z,0.42
2018-06-30T13:25:22.195Z,0.30
2018-06-30T13:26:28.151Z,0.50
2018-06-30T13:27:34.255Z,0.42
2018-06-30T13:28:40.599Z,0.40
2018-06-30T13:29:46.756Z,0.40
2018-06-30T13:30:52.362Z,0.40
2018-06-30T13:31:58.226Z,0.40
2018-06-30T13:33:04.206Z,0.50
2018-06-30T13:34:10.669Z,0.40
2018-06-30T13:35:16.704Z,0.40
2018-06-30T13:36:22.699Z,0.40
2018-06-30T13:37:28.663Z,0.40
2018-06-30T13:38:34.982Z,0.40
2018-06-30T13:39:41.103Z,0.40
2018-06-30T13:40:47.072Z,0.40
2018-06-30T13:41:53.446Z,0.40
2018-06-30T13:42:59.472Z,0.50
2018-06-30T13:44:06.527Z,0.50
2018-06-30T13:45:13.037Z,0.40
2018-06-30T13:46:19.484Z,0.60
2018-06-30T13:47:26.011Z,0.50
2018-06-30T13:48:32.023Z,0.45
2018-06-30T13:49:38.018Z,0.70
2018-06-30T13:50:44.149Z,0.40
2018-06-30T13:51:50.134Z,0.40
2018-06-30T13:52:56.151Z,0.40
2018-06-30T13:54:02.182Z,0.40
2018-06-30T13:55:08.285Z,0.50
2018-06-30T13:56:14.350Z,0.40
2018-06-30T13:57:20.347Z,0.40
2018-06-30T13:58:26.362Z,0.40
2018-06-30T13:59:32.382Z,0.50
2018-06-30T14:00:38.375Z,0.47
2018-06-30T14:01:44.349Z,0.40
2018-06-30T14:02:50.326Z,0.42
2018-06-30T14:03:56.659Z,0.50
2018-06-30T14:05:02.619Z,0.40
2018-06-30T14:06:08.956Z,0.40
2018-06-30T14:07:15.073Z,0.60
2018-06-30T14:08:21.531Z,0.60
2018-06-30T14:09:27.512Z,0.50
2018-06-30T14:10:33.859Z,0.40
2018-06-30T14:11:40.054Z,0.50
2018-06-30T14:12:46.120Z,0.40
2018-06-30T14:13:51.926Z,0.50
2018-06-30T14:14:58.143Z,0.40
2018-06-30T14:16:04.148Z,0.50
2018-06-30T14:17:10.135Z,0.40
2018-06-30T14:18:16.148Z,0.40
2018-06-30T14:19:22.653Z,0.40
2018-06-30T14:20:28.646Z,0.40
2018-06-30T14:21:34.607Z,0.40
2018-06-30T14:22:40.220Z,0.45
2018-06-30T14:23:46.109Z,0.40
2018-06-30T14:24:52.259Z,0.40
2018-06-30T14:25:58.431Z,0.40
2018-06-30T14:27:05.037Z,0.33
2018-06-30T14:28:10.985Z,0.40
2018-06-30T14:29:16.962Z,0.40
2018-06-30T14:30:22.944Z,0.40
2018-06-30T14:31:29.402Z,0.42
2018-06-30T14:32:35.614Z,0.50
2018-06-30T14:33:41.599Z,0.40
2018-06-30T14:34:47.614Z,0.47
2018-06-30T14:35:53.229Z,0.35
2018-06-30T14:36:58.775Z,0.50
2018-06-30T14:38:04.876Z,0.50
2018-06-30T14:39:12.855Z,0.80